createdAt,value
2017-10-10T00:00:09.385Z,15.60
2017-10-10T00:00:43.261Z,17.65
2017-10-10T00:01:17.121Z,17.45
2017-10-10T00:01:51.002Z,15.88
2017-10-10T00:02:24.889Z,15.23
2017-10-10T00:02:58.777Z,17.23
2017-10-10T00:03:32.667Z,16.10
2017-10-10T00:04:06.545Z,17.33
2017-10-10T00:04:40.431Z,17.42
2017-10-10T00:05:14.296Z,17.20
2017-10-10T00:05:48.179Z,18.20
2017-10-10T00:06:22.181Z,14.73
2017-10-10T00:06:56.051Z,23.87
2017-10-10T00:07:29.914Z,18.23
2017-10-10T00:08:03.780Z,15.38
2017-10-10T00:08:37.696Z,16.60
2017-10-10T00:09:11.577Z,20.30
2017-10-10T00:09:46.373Z,16.42
2017-10-10T00:10:20.239Z,16.67
2017-10-10T00:10:54.123Z,17.05
2017-10-10T00:11:27.995Z,19.83
2017-10-10T00:12:01.858Z,17.83
2017-10-10T00:12:35.719Z,19.42
2017-10-10T00:13:09.595Z,19.60
2017-10-10T00:13:43.491Z,21.45
2017-10-10T00:14:17.372Z,21.35
2017-10-10T00:14:51.245Z,20.85
2017-10-10T00:15:25.111Z,25.52
2017-10-10T00:15:58.973Z,22.17
2017-10-10T00:16:32.848Z,20.98
2017-10-10T00:17:06.720Z,21.90
2017-10-10T00:17:40.602Z,20.55
2017-10-10T00:18:14.485Z,25.00
2017-10-10T00:18:48.695Z,29.02
2017-10-10T00:19:22.569Z,23.65
2017-10-10T00:19:56.447Z,25.50
2017-10-10T00:20:30.309Z,25.40
2017-10-10T00:21:04.195Z,24.75
2017-10-10T00:21:38.069Z,27.23
2017-10-10T00:22:11.940Z,25.80
2017-10-10T00:22:45.817Z,25.88
2017-10-10T00:23:19.728Z,25.10
2017-10-10T00:23:53.632Z,25.10
2017-10-10T00:24:27.512Z,24.70
2017-10-10T00:25:01.389Z,26.58
2017-10-10T00:25:35.304Z,27.15
2017-10-10T00:26:09.190Z,23.87
2017-10-10T00:26:43.064Z,24.80
2017-10-10T00:27:16.943Z,30.73
2017-10-10T00:27:50.837Z,27.55
2017-10-10T00:28:24.731Z,26.00
2017-10-10T00:28:58.686Z,31.75
2017-10-10T00:29:32.560Z,26.55
2017-10-10T00:30:06.418Z,31.95
2017-10-10T00:30:40.317Z,27.67
2017-10-10T00:31:14.282Z,27.40
2017-10-10T00:31:48.303Z,27.05
2017-10-10T00:32:22.175Z,30.73
2017-10-10T00:32:56.096Z,26.62
2017-10-10T00:33:29.974Z,27.98
2017-10-10T00:34:03.869Z,29.70
2017-10-10T00:34:37.891Z,28.23
2017-10-10T00:35:11.786Z,27.90
2017-10-10T00:35:45.670Z,26.95
2017-10-10T00:36:19.564Z,28.60
2017-10-10T00:36:53.422Z,28.45
2017-10-10T00:37:27.302Z,27.73
2017-10-10T00:38:01.169Z,29.87
2017-10-10T00:38:35.040Z,32.50
2017-10-10T00:39:08.933Z,33.53
2017-10-10T00:39:42.783Z,31.25
2017-10-10T00:40:16.660Z,30.12
2017-10-10T00:40:50.551Z,31.10
2017-10-10T00:41:24.448Z,35.97
2017-10-10T00:41:58.321Z,28.27
2017-10-10T00:42:32.192Z,33.30
2017-10-10T00:43:06.090Z,31.23
2017-10-10T00:43:39.963Z,26.90
2017-10-10T00:44:13.845Z,29.65
2017-10-10T00:44:47.738Z,37.15
2017-10-10T00:45:21.640Z,29.48
2017-10-10T00:45:55.509Z,31.95
2017-10-10T00:46:29.385Z,33.40
2017-10-10T00:47:03.253Z,33.45
2017-10-10T00:47:37.131Z,34.67
2017-10-10T00:48:11.023Z,31.17
2017-10-10T00:48:44.893Z,34.97
2017-10-10T00:49:18.773Z,29.60
2017-10-10T00:49:52.826Z,31.70
2017-10-10T00:50:26.745Z,33.35
2017-10-10T00:51:00.621Z,33.28
2017-10-10T00:51:34.524Z,33.13
2017-10-10T00:52:08.405Z,30.77
2017-10-10T00:52:42.272Z,32.63
2017-10-10T00:53:16.137Z,31.65
2017-10-10T00:53:50.012Z,35.63
2017-10-10T00:54:23.905Z,35.30
2017-10-10T00:54:57.792Z,37.83
2017-10-10T00:55:31.662Z,33.15
2017-10-10T00:56:05.566Z,39.45
2017-10-10T00:56:39.463Z,33.53
2017-10-10T00:57:13.340Z,34.15
2017-10-10T00:57:47.215Z,35.30
2017-10-10T00:58:21.094Z,37.05
2017-10-10T00:58:54.988Z,36.60
2017-10-10T00:59:29.145Z,33.22
2017-10-10T01:00:03.057Z,36.25
2017-10-10T01:00:36.929Z,34.08
2017-10-10T01:01:10.831Z,36.78
2017-10-10T01:01:44.703Z,35.60
2017-10-10T01:02:18.591Z,34.55
2017-10-10T01:02:52.469Z,37.78
2017-10-10T01:03:26.333Z,34.30
2017-10-10T01:04:00.239Z,39.17
2017-10-10T01:04:34.145Z,41.90
2017-10-10T01:05:08.023Z,39.00
2017-10-10T01:05:42.097Z,37.88
2017-10-10T01:06:15.960Z,34.58
2017-10-10T01:06:49.841Z,38.55
2017-10-10T01:07:23.726Z,39.90
2017-10-10T01:07:57.585Z,39.30
2017-10-10T01:08:31.507Z,37.22
2017-10-10T01:09:05.387Z,36.10
2017-10-10T01:09:39.270Z,36.33
2017-10-10T01:10:13.139Z,36.17
2017-10-10T01:10:47.097Z,34.50
2017-10-10T01:11:20.975Z,38.97
2017-10-10T01:11:54.848Z,35.47
2017-10-10T01:12:28.726Z,32.72
2017-10-10T01:13:02.595Z,38.20
2017-10-10T01:13:36.468Z,39.42
2017-10-10T01:14:10.346Z,42.92
2017-10-10T01:14:44.239Z,34.20
2017-10-10T01:15:18.125Z,38.83
2017-10-10T01:15:51.983Z,37.85
2017-10-10T01:16:25.857Z,38.78
2017-10-10T01:16:59.727Z,39.45
2017-10-10T01:17:33.608Z,38.72
2017-10-10T01:18:07.494Z,38.22
2017-10-10T01:18:41.480Z,36.47
2017-10-10T01:19:15.356Z,35.47
2017-10-10T01:19:49.250Z,35.38
2017-10-10T01:20:23.133Z,39.42
2017-10-10T01:20:56.996Z,38.58
2017-10-10T01:21:30.867Z,38.65
2017-10-10T01:22:04.746Z,42.08
2017-10-10T01:22:38.638Z,37.25
2017-10-10T01:23:12.514Z,42.15
2017-10-10T01:23:46.412Z,35.78
2017-10-10T01:24:20.294Z,39.28
2017-10-10T01:24:54.169Z,38.20
2017-10-10T01:25:28.039Z,37.65
2017-10-10T01:26:01.930Z,38.40
2017-10-10T01:26:35.798Z,42.72
2017-10-10T01:27:09.693Z,38.85
2017-10-10T01:27:43.564Z,38.78
2017-10-10T01:28:17.443Z,34.80
2017-10-10T01:28:51.355Z,36.33
2017-10-10T01:29:25.240Z,39.75
2017-10-10T01:29:59.123Z,38.42
2017-10-10T01:30:33.039Z,41.92
2017-10-10T01:31:06.920Z,39.50
2017-10-10T01:31:40.808Z,39.38
2017-10-10T01:32:14.683Z,39.42
2017-10-10T01:32:48.545Z,39.60
2017-10-10T01:33:22.441Z,35.83
2017-10-10T01:33:56.364Z,40.60
2017-10-10T01:34:30.446Z,40.78
2017-10-10T01:35:04.338Z,37.30
2017-10-10T01:35:38.219Z,45.63
2017-10-10T01:36:12.142Z,38.95
2017-10-10T01:36:46.017Z,40.25
2017-10-10T01:37:20.026Z,37.50
2017-10-10T01:37:53.888Z,37.33
2017-10-10T01:38:27.758Z,36.70
2017-10-10T01:39:01.620Z,35.83
2017-10-10T01:39:35.499Z,38.45
2017-10-10T01:40:09.392Z,39.60
2017-10-10T01:40:43.273Z,39.63
2017-10-10T01:41:17.166Z,38.58
2017-10-10T01:41:51.023Z,40.95
2017-10-10T01:42:25.098Z,39.10
2017-10-10T01:42:58.971Z,40.35
2017-10-10T01:43:32.835Z,40.83
2017-10-10T01:44:06.719Z,40.70
2017-10-10T01:44:40.599Z,40.95
2017-10-10T01:45:14.505Z,37.35
2017-10-10T01:45:48.382Z,40.55
2017-10-10T01:46:22.259Z,41.00
2017-10-10T01:46:56.344Z,40.75
2017-10-10T01:47:30.221Z,46.83
2017-10-10T01:48:04.104Z,46.03
2017-10-10T01:48:38.034Z,42.88
2017-10-10T01:49:11.910Z,39.67
2017-10-10T01:49:45.775Z,40.15
2017-10-10T01:50:19.641Z,38.70
2017-10-10T01:50:53.511Z,37.00
2017-10-10T01:51:27.394Z,35.35
2017-10-10T01:52:01.279Z,40.63
2017-10-10T01:52:35.159Z,42.17
2017-10-10T01:53:09.025Z,40.78
2017-10-10T01:53:42.881Z,43.22
2017-10-10T01:54:16.780Z,41.33
2017-10-10T01:54:50.674Z,38.05
2017-10-10T01:55:24.561Z,42.45
2017-10-10T01:55:58.439Z,43.92
2017-10-10T01:56:32.320Z,39.53
2017-10-10T01:57:06.191Z,41.17
2017-10-10T01:57:40.051Z,45.00
2017-10-10T01:58:13.936Z,40.08
2017-10-10T01:58:47.805Z,41.25
2017-10-10T01:59:21.685Z,40.30
2017-10-10T01:59:55.555Z,41.10
2017-10-10T02:00:29.440Z,42.55
2017-10-10T02:01:03.315Z,40.33
2017-10-10T02:01:37.176Z,35.70
2017-10-10T02:02:11.058Z,37.50
2017-10-10T02:02:45.000Z,42.03
2017-10-10T02:03:18.877Z,39.33
2017-10-10T02:03:52.746Z,39.40
2017-10-10T02:04:26.642Z,35.15
2017-10-10T02:05:00.501Z,37.70
2017-10-10T02:05:34.394Z,41.58
2017-10-10T02:06:08.292Z,37.90
2017-10-10T02:06:42.185Z,41.10
2017-10-10T02:07:16.262Z,38.30
2017-10-10T02:07:50.153Z,39.10
2017-10-10T02:08:24.032Z,42.42
2017-10-10T02:08:57.899Z,40.70
2017-10-10T02:09:31.783Z,40.17
2017-10-10T02:10:05.657Z,37.08
2017-10-10T02:10:39.537Z,38.15
2017-10-10T02:11:13.396Z,39.97
2017-10-10T02:11:47.296Z,37.38
2017-10-10T02:12:21.202Z,44.00
2017-10-10T02:12:55.069Z,33.20
2017-10-10T02:13:28.937Z,33.58
2017-10-10T02:14:02.813Z,38.60
2017-10-10T02:14:36.694Z,35.35
2017-10-10T02:15:10.560Z,35.38
2017-10-10T02:15:44.427Z,36.80
2017-10-10T02:16:18.298Z,35.72
2017-10-10T02:16:52.188Z,37.05
2017-10-10T02:17:26.054Z,34.78
2017-10-10T02:17:59.929Z,33.15
2017-10-10T02:18:33.798Z,34.40
2017-10-10T02:19:07.665Z,36.38
2017-10-10T02:19:41.758Z,32.35
2017-10-10T02:20:15.658Z,30.45
2017-10-10T02:20:49.556Z,32.03
2017-10-10T02:21:23.444Z,31.40
2017-10-10T02:21:57.334Z,34.80
2017-10-10T02:22:31.230Z,34.35
2017-10-10T02:23:05.104Z,36.03
2017-10-10T02:23:38.970Z,33.50
2017-10-10T02:24:12.838Z,34.53
2017-10-10T02:24:46.709Z,32.85
2017-10-10T02:25:20.604Z,40.92
2017-10-10T02:25:54.491Z,31.77
2017-10-10T02:26:28.352Z,32.83
2017-10-10T02:27:02.247Z,33.20
2017-10-10T02:27:36.120Z,34.08
2017-10-10T02:28:09.998Z,32.08
2017-10-10T02:28:43.872Z,30.35
2017-10-10T02:29:17.745Z,36.17
2017-10-10T02:29:51.617Z,32.70
2017-10-10T02:30:25.764Z,31.83
2017-10-10T02:30:59.683Z,33.83
2017-10-10T02:31:33.559Z,33.55
2017-10-10T02:32:07.448Z,36.35
2017-10-10T02:32:41.341Z,33.15
2017-10-10T02:33:15.212Z,34.08
2017-10-10T02:33:49.111Z,34.15
2017-10-10T02:34:22.980Z,33.75
2017-10-10T02:34:56.860Z,31.98
2017-10-10T02:35:30.740Z,36.03
2017-10-10T02:36:04.623Z,34.13
2017-10-10T02:36:38.534Z,29.17
2017-10-10T02:37:12.427Z,32.78
2017-10-10T02:37:46.310Z,32.50
2017-10-10T02:38:20.181Z,31.73
2017-10-10T02:38:54.066Z,34.97
2017-10-10T02:39:27.947Z,32.85
2017-10-10T02:40:01.815Z,33.25
2017-10-10T02:40:35.702Z,31.45
2017-10-10T02:41:09.619Z,33.05
2017-10-10T02:41:43.505Z,32.20
2017-10-10T02:42:17.392Z,33.45
2017-10-10T02:42:51.269Z,34.13
2017-10-10T02:43:25.160Z,31.60
2017-10-10T02:43:59.127Z,33.03
2017-10-10T02:44:33.000Z,39.30
2017-10-10T02:45:06.905Z,32.50
2017-10-10T02:45:40.793Z,35.70
2017-10-10T02:46:14.715Z,28.90
2017-10-10T02:46:48.610Z,34.30
2017-10-10T02:47:23.007Z,32.22
2017-10-10T02:47:56.880Z,33.92
2017-10-10T02:48:30.758Z,32.72
2017-10-10T02:49:04.703Z,29.65
2017-10-10T02:49:38.566Z,36.63
2017-10-10T02:50:12.477Z,33.83
2017-10-10T02:50:46.373Z,31.17
2017-10-10T02:51:20.264Z,30.77
2017-10-10T02:51:54.158Z,29.67
2017-10-10T02:52:28.040Z,28.67
2017-10-10T02:53:01.914Z,32.13
2017-10-10T02:53:35.820Z,30.33
2017-10-10T02:54:09.692Z,31.70
2017-10-10T02:54:43.549Z,28.30
2017-10-10T02:55:17.413Z,34.40
2017-10-10T02:55:51.263Z,33.00
2017-10-10T02:56:25.152Z,32.30
2017-10-10T02:56:59.032Z,32.08
2017-10-10T02:57:32.921Z,28.98
2017-10-10T02:58:06.798Z,32.08
2017-10-10T02:58:40.661Z,30.40
2017-10-10T02:59:14.524Z,31.37
2017-10-10T02:59:48.416Z,30.55
2017-10-10T03:00:22.316Z,32.05
2017-10-10T03:00:56.252Z,30.12
2017-10-10T03:01:30.160Z,29.05
2017-10-10T03:02:04.262Z,32.22
2017-10-10T03:02:38.145Z,30.80
2017-10-10T03:03:12.023Z,32.25
2017-10-10T03:03:45.891Z,35.10
2017-10-10T03:04:20.677Z,27.60
2017-10-10T03:04:54.559Z,33.40
2017-10-10T03:05:28.443Z,30.80
2017-10-10T03:06:02.311Z,29.37
2017-10-10T03:06:36.200Z,29.00
2017-10-10T03:07:10.067Z,29.42
2017-10-10T03:07:43.945Z,32.03
2017-10-10T03:08:17.827Z,32.17
2017-10-10T03:08:51.707Z,30.90
2017-10-10T03:09:25.595Z,30.50
2017-10-10T03:09:59.449Z,28.00
2017-10-10T03:10:33.321Z,32.72
2017-10-10T03:11:07.183Z,30.70
2017-10-10T03:11:41.076Z,27.20
2017-10-10T03:12:14.948Z,29.05
2017-10-10T03:12:48.829Z,31.75
2017-10-10T03:13:22.697Z,28.08
2017-10-10T03:13:56.566Z,30.80
2017-10-10T03:14:30.462Z,29.95
2017-10-10T03:15:04.357Z,31.67
2017-10-10T03:15:38.219Z,29.67
2017-10-10T03:16:12.081Z,32.53
2017-10-10T03:16:45.962Z,32.17
2017-10-10T03:17:19.831Z,29.55
2017-10-10T03:17:53.720Z,29.75
2017-10-10T03:18:27.606Z,30.92
2017-10-10T03:19:01.549Z,29.12
2017-10-10T03:19:35.431Z,29.52
2017-10-10T03:20:09.297Z,30.48
2017-10-10T03:20:43.188Z,29.58
2017-10-10T03:21:17.071Z,28.23
2017-10-10T03:21:50.950Z,33.08
2017-10-10T03:22:24.821Z,29.70
2017-10-10T03:22:58.738Z,31.35
2017-10-10T03:23:32.606Z,38.17
2017-10-10T03:24:06.489Z,33.88
2017-10-10T03:24:40.360Z,37.67
2017-10-10T03:25:14.225Z,36.45
2017-10-10T03:25:48.103Z,33.38
2017-10-10T03:26:21.979Z,32.80
2017-10-10T03:26:55.873Z,31.42
2017-10-10T03:27:29.901Z,32.90
2017-10-10T03:28:03.780Z,33.58
2017-10-10T03:28:37.643Z,33.55
2017-10-10T03:29:11.520Z,35.13
2017-10-10T03:29:45.406Z,31.37
2017-10-10T03:30:19.306Z,32.78
2017-10-10T03:30:53.197Z,30.95
2017-10-10T03:31:27.076Z,34.45
2017-10-10T03:32:00.957Z,28.10
2017-10-10T03:32:34.853Z,28.95
2017-10-10T03:33:09.239Z,32.13
2017-10-10T03:33:43.120Z,32.83
2017-10-10T03:34:17.006Z,33.58
2017-10-10T03:34:50.890Z,30.48
2017-10-10T03:35:24.763Z,30.83
2017-10-10T03:35:58.630Z,29.60
2017-10-10T03:36:32.754Z,33.78
2017-10-10T03:37:06.646Z,30.52
2017-10-10T03:37:40.519Z,32.53
2017-10-10T03:38:14.384Z,31.62
2017-10-10T03:38:48.243Z,29.25
2017-10-10T03:39:22.108Z,32.53
2017-10-10T03:39:55.990Z,32.58
2017-10-10T03:40:29.886Z,30.23
2017-10-10T03:41:03.767Z,31.60
2017-10-10T03:41:37.631Z,29.02
2017-10-10T03:42:11.515Z,31.25
2017-10-10T03:42:45.399Z,32.00
2017-10-10T03:43:19.282Z,31.23
2017-10-10T03:43:53.167Z,27.15
2017-10-10T03:44:27.048Z,31.92
2017-10-10T03:45:00.938Z,32.78
2017-10-10T03:45:34.807Z,31.37
2017-10-10T03:46:08.673Z,29.25
2017-10-10T03:46:42.561Z,33.60
2017-10-10T03:47:16.460Z,28.55
2017-10-10T03:47:50.438Z,32.85
2017-10-10T03:48:24.314Z,32.53
2017-10-10T03:48:58.208Z,30.62
2017-10-10T03:49:32.070Z,29.58
2017-10-10T03:50:05.935Z,29.05
2017-10-10T03:50:39.819Z,29.05
2017-10-10T03:51:13.695Z,31.33
2017-10-10T03:51:47.574Z,29.30
2017-10-10T03:52:21.475Z,29.42
2017-10-10T03:52:55.354Z,31.85
2017-10-10T03:53:29.252Z,32.47
2017-10-10T03:54:03.140Z,32.35
2017-10-10T03:54:37.003Z,31.30
2017-10-10T03:55:10.878Z,30.85
2017-10-10T03:55:44.746Z,29.73
2017-10-10T03:56:18.868Z,33.70
2017-10-10T03:56:52.765Z,31.02
2017-10-10T03:57:26.744Z,33.20
2017-10-10T03:58:00.613Z,29.85
2017-10-10T03:58:34.496Z,32.83
2017-10-10T03:59:08.365Z,31.50
2017-10-10T03:59:42.239Z,31.25
2017-10-10T04:00:16.127Z,28.62
2017-10-10T04:00:50.006Z,33.45
2017-10-10T04:01:23.873Z,30.85
2017-10-10T04:01:57.752Z,34.35
2017-10-10T04:02:31.643Z,32.10
2017-10-10T04:03:05.518Z,32.10
2017-10-10T04:03:39.396Z,29.48
2017-10-10T04:04:13.294Z,32.33
2017-10-10T04:04:47.197Z,32.00
2017-10-10T04:05:21.084Z,32.35
2017-10-10T04:05:54.974Z,36.88
2017-10-10T04:06:28.860Z,35.92
2017-10-10T04:07:02.734Z,32.30
2017-10-10T04:07:36.620Z,32.65
2017-10-10T04:08:10.541Z,32.28
2017-10-10T04:08:44.418Z,31.90
2017-10-10T04:09:18.352Z,30.45
2017-10-10T04:09:52.242Z,30.62
2017-10-10T04:10:26.119Z,31.62
2017-10-10T04:11:00.068Z,35.42
2017-10-10T04:11:33.941Z,32.90
2017-10-10T04:12:07.824Z,31.20
2017-10-10T04:12:41.719Z,31.58
2017-10-10T04:13:15.591Z,31.92
2017-10-10T04:13:49.450Z,32.50
2017-10-10T04:14:23.326Z,29.30
2017-10-10T04:14:57.184Z,31.65
2017-10-10T04:15:31.060Z,35.30
2017-10-10T04:16:04.940Z,30.30
2017-10-10T04:16:38.831Z,29.23
2017-10-10T04:17:12.708Z,31.80
2017-10-10T04:17:46.576Z,25.55
2017-10-10T04:18:20.473Z,27.15
2017-10-10T04:18:54.362Z,29.60
2017-10-10T04:19:28.243Z,32.90
2017-10-10T04:20:02.154Z,29.80
2017-10-10T04:20:36.031Z,27.98
2017-10-10T04:21:09.912Z,33.88
2017-10-10T04:21:43.779Z,35.35
2017-10-10T04:22:17.654Z,31.25
2017-10-10T04:22:51.656Z,31.02
2017-10-10T04:23:25.543Z,27.10
2017-10-10T04:23:59.405Z,26.83
2017-10-10T04:24:33.294Z,27.45
2017-10-10T04:25:07.164Z,33.22
2017-10-10T04:25:41.048Z,29.33
2017-10-10T04:26:15.115Z,29.37
2017-10-10T04:26:48.979Z,32.10
2017-10-10T04:27:22.857Z,29.95
2017-10-10T04:27:56.728Z,29.85
2017-10-10T04:28:30.595Z,29.30
2017-10-10T04:29:04.486Z,28.92
2017-10-10T04:29:38.363Z,27.08
2017-10-10T04:30:12.238Z,30.50
2017-10-10T04:30:46.112Z,32.85
2017-10-10T04:31:19.981Z,29.30
2017-10-10T04:31:53.837Z,26.10
2017-10-10T04:32:27.734Z,30.00
2017-10-10T04:33:01.652Z,26.95
2017-10-10T04:33:35.744Z,28.10
2017-10-10T04:34:09.629Z,28.60
2017-10-10T04:34:43.520Z,26.40
2017-10-10T04:35:17.405Z,25.58
2017-10-10T04:35:51.278Z,35.05
2017-10-10T04:36:25.193Z,28.90
2017-10-10T04:36:59.116Z,26.85
2017-10-10T04:37:33.009Z,32.00
2017-10-10T04:38:06.902Z,28.30
2017-10-10T04:38:40.773Z,28.08
2017-10-10T04:39:14.655Z,31.00
2017-10-10T04:39:48.511Z,31.20
2017-10-10T04:40:22.383Z,29.42
2017-10-10T04:40:56.279Z,28.52
2017-10-10T04:41:30.156Z,27.40
2017-10-10T04:42:04.039Z,28.90
2017-10-10T04:42:37.902Z,27.37
2017-10-10T04:43:11.779Z,30.45
2017-10-10T04:43:45.671Z,30.60
2017-10-10T04:44:19.541Z,29.75
2017-10-10T04:44:53.439Z,30.02
2017-10-10T04:45:27.319Z,28.17
2017-10-10T04:46:01.190Z,28.05
2017-10-10T04:46:35.081Z,27.45
2017-10-10T04:47:08.959Z,29.27
2017-10-10T04:47:42.882Z,25.90
2017-10-10T04:48:16.770Z,28.70
2017-10-10T04:48:50.662Z,30.60
2017-10-10T04:49:24.556Z,32.33
2017-10-10T04:49:58.418Z,31.08
2017-10-10T04:50:32.313Z,29.20
2017-10-10T04:51:06.191Z,28.67
2017-10-10T04:51:40.066Z,25.65
2017-10-10T04:52:13.949Z,31.25
2017-10-10T04:52:47.822Z,32.10
2017-10-10T04:53:21.713Z,28.75
2017-10-10T04:53:55.580Z,29.58
2017-10-10T04:54:29.465Z,27.45
2017-10-10T04:55:03.350Z,32.03
2017-10-10T04:55:37.210Z,28.02
2017-10-10T04:56:11.124Z,26.50
2017-10-10T04:56:45.005Z,30.92
2017-10-10T04:57:18.881Z,28.62
2017-10-10T04:57:52.777Z,33.20
2017-10-10T04:58:26.656Z,30.02
2017-10-10T04:59:00.570Z,30.83
2017-10-10T04:59:34.457Z,27.40
2017-10-10T05:00:08.357Z,27.95
2017-10-10T05:00:42.474Z,29.80
2017-10-10T05:01:16.708Z,28.60
2017-10-10T05:01:50.606Z,30.12
2017-10-10T05:02:24.489Z,30.00
2017-10-10T05:02:58.368Z,28.35
2017-10-10T05:03:32.267Z,31.15
2017-10-10T05:04:06.156Z,29.10
2017-10-10T05:04:40.051Z,32.90
2017-10-10T05:05:13.923Z,29.87
2017-10-10T05:05:47.816Z,27.45
2017-10-10T05:06:22.520Z,31.83
2017-10-10T05:06:56.404Z,24.75
2017-10-10T05:07:30.284Z,29.20
2017-10-10T05:08:04.145Z,29.02
2017-10-10T05:08:38.036Z,31.12
2017-10-10T05:09:11.894Z,33.13
2017-10-10T05:09:45.797Z,39.40
2017-10-10T05:10:19.731Z,33.80
2017-10-10T05:10:53.592Z,33.53
2017-10-10T05:11:27.481Z,33.00
2017-10-10T05:12:01.354Z,31.23
2017-10-10T05:12:35.223Z,34.45
2017-10-10T05:13:09.116Z,33.30
2017-10-10T05:13:43.329Z,31.33
2017-10-10T05:14:17.326Z,33.42
2017-10-10T05:14:51.209Z,28.65
2017-10-10T05:15:25.084Z,31.67
2017-10-10T05:15:58.981Z,31.92
2017-10-10T05:16:32.880Z,30.60
2017-10-10T05:17:06.749Z,33.70
2017-10-10T05:17:40.622Z,31.55
2017-10-10T05:18:14.533Z,31.60
2017-10-10T05:18:48.430Z,33.00
2017-10-10T05:19:22.305Z,34.40
2017-10-10T05:19:56.198Z,30.42
2017-10-10T05:20:30.122Z,33.05
2017-10-10T05:21:03.989Z,32.78
2017-10-10T05:21:37.892Z,29.12
2017-10-10T05:22:11.764Z,31.50
2017-10-10T05:22:45.672Z,30.80
2017-10-10T05:23:19.554Z,34.03
2017-10-10T05:23:53.619Z,29.90
2017-10-10T05:24:27.495Z,28.42
2017-10-10T05:25:01.371Z,30.80
2017-10-10T05:25:35.252Z,32.28
2017-10-10T05:26:09.148Z,35.85
2017-10-10T05:26:43.020Z,35.97
2017-10-10T05:27:16.885Z,29.10
2017-10-10T05:27:50.756Z,35.45
2017-10-10T05:28:24.625Z,30.40
2017-10-10T05:28:58.520Z,33.97
2017-10-10T05:29:32.399Z,35.00
2017-10-10T05:30:06.306Z,36.47
2017-10-10T05:30:40.167Z,30.20
2017-10-10T05:31:14.043Z,33.58
2017-10-10T05:31:47.921Z,37.38
2017-10-10T05:32:21.805Z,32.05
2017-10-10T05:32:55.677Z,32.20
2017-10-10T05:33:29.582Z,35.85
2017-10-10T05:34:03.485Z,29.17
2017-10-10T05:34:37.365Z,31.70
2017-10-10T05:35:11.257Z,31.67
2017-10-10T05:35:45.141Z,27.80
2017-10-10T05:36:19.014Z,25.77
2017-10-10T05:36:52.930Z,22.55
2017-10-10T05:37:27.138Z,22.80
2017-10-10T05:38:01.069Z,21.77
2017-10-10T05:38:35.025Z,20.90
2017-10-10T05:39:08.920Z,21.37
2017-10-10T05:39:42.787Z,26.92
2017-10-10T05:40:16.686Z,24.05
2017-10-10T05:40:50.562Z,21.77
2017-10-10T05:41:24.448Z,19.73
2017-10-10T05:41:58.340Z,21.25
2017-10-10T05:42:32.224Z,17.92
2017-10-10T05:43:06.125Z,14.80
2017-10-10T05:43:40.001Z,19.05
2017-10-10T05:44:13.913Z,18.20
2017-10-10T05:44:47.807Z,19.27
2017-10-10T05:45:21.677Z,16.87
2017-10-10T05:45:55.561Z,16.55
2017-10-10T05:46:29.450Z,17.45
2017-10-10T05:47:03.344Z,13.95
2017-10-10T05:47:37.265Z,14.32
2017-10-10T05:48:11.127Z,15.00
2017-10-10T05:48:45.032Z,15.85
2017-10-10T05:49:18.924Z,16.65
2017-10-10T05:49:53.030Z,12.63
2017-10-10T05:50:26.912Z,17.30
2017-10-10T05:51:00.789Z,12.95
2017-10-10T05:51:34.683Z,13.27
2017-10-10T05:52:08.581Z,11.45
2017-10-10T05:52:42.468Z,14.48
2017-10-10T05:53:16.340Z,10.93
2017-10-10T05:53:50.214Z,11.80
2017-10-10T05:54:24.117Z,12.25
2017-10-10T05:54:57.990Z,13.62
2017-10-10T05:55:31.883Z,13.68
2017-10-10T05:56:05.900Z,11.82
2017-10-10T05:56:39.756Z,8.77
2017-10-10T05:57:13.702Z,13.35
2017-10-10T05:57:47.630Z,14.52
2017-10-10T05:58:21.512Z,12.93
2017-10-10T05:58:55.370Z,15.88
2017-10-10T05:59:29.283Z,12.25
2017-10-10T06:00:03.145Z,12.43
2017-10-10T06:00:37.018Z,10.80
2017-10-10T06:01:10.865Z,10.18
2017-10-10T06:01:45.767Z,11.70
2017-10-10T06:02:20.455Z,8.93
2017-10-10T06:02:54.323Z,11.00
2017-10-10T06:03:28.205Z,10.88
2017-10-10T06:04:02.076Z,11.88
2017-10-10T06:04:35.947Z,9.50
2017-10-10T06:05:09.829Z,9.38
2017-10-10T06:05:43.756Z,10.25
2017-10-10T06:06:17.690Z,12.90
2017-10-10T06:06:51.555Z,12.95
2017-10-10T06:07:25.410Z,9.85
2017-10-10T06:07:59.271Z,10.07
2017-10-10T06:08:35.273Z,12.80
2017-10-10T06:09:09.128Z,9.60
2017-10-10T06:09:42.996Z,9.50
2017-10-10T06:10:16.861Z,12.00
2017-10-10T06:10:50.724Z,9.45
2017-10-10T06:11:24.607Z,9.55
2017-10-10T06:11:58.506Z,9.07
2017-10-10T06:12:32.406Z,11.85
2017-10-10T06:13:06.266Z,11.05
2017-10-10T06:13:40.132Z,9.90
2017-10-10T06:14:13.993Z,11.05
2017-10-10T06:14:47.868Z,9.32
2017-10-10T06:15:21.722Z,8.20
2017-10-10T06:15:55.596Z,11.80
2017-10-10T06:16:29.487Z,11.23
2017-10-10T06:17:03.376Z,8.40
2017-10-10T06:17:37.253Z,10.02
2017-10-10T06:18:11.142Z,8.77
2017-10-10T06:18:45.009Z,9.07
2017-10-10T06:19:18.888Z,12.75
2017-10-10T06:19:52.762Z,7.45
2017-10-10T06:20:26.633Z,10.98
2017-10-10T06:21:00.846Z,8.50
2017-10-10T06:21:34.850Z,11.70
2017-10-10T06:22:08.711Z,10.90
2017-10-10T06:22:42.592Z,9.35
2017-10-10T06:23:16.461Z,9.55
2017-10-10T06:23:50.350Z,8.77
2017-10-10T06:24:24.219Z,9.02
2017-10-10T06:24:58.229Z,9.43
2017-10-10T06:25:32.138Z,9.90
2017-10-10T06:26:06.026Z,10.55
2017-10-10T06:26:39.909Z,11.88
2017-10-10T06:27:14.692Z,14.65
2017-10-10T06:27:48.617Z,11.25
2017-10-10T06:28:22.484Z,11.07
2017-10-10T06:28:56.360Z,10.10
2017-10-10T06:29:30.238Z,11.60
2017-10-10T06:30:04.120Z,10.20
2017-10-10T06:30:37.982Z,9.32
2017-10-10T06:31:11.848Z,12.10
2017-10-10T06:31:45.742Z,11.98
2017-10-10T06:32:19.783Z,9.27
2017-10-10T06:32:53.657Z,8.88
2017-10-10T06:33:28.169Z,11.25
2017-10-10T06:34:02.068Z,11.40
2017-10-10T06:34:36.181Z,13.15
2017-10-10T06:35:10.088Z,10.25
2017-10-10T06:35:43.969Z,13.40
2017-10-10T06:36:17.848Z,14.40
2017-10-10T06:36:51.719Z,12.63
2017-10-10T06:37:25.639Z,13.10
2017-10-10T06:37:59.517Z,12.07
2017-10-10T06:38:33.397Z,12.63
2017-10-10T06:39:07.274Z,13.70
2017-10-10T06:39:41.140Z,14.52
2017-10-10T06:40:15.239Z,14.45
2017-10-10T06:40:49.122Z,13.05
2017-10-10T06:41:23.006Z,16.62
2017-10-10T06:41:56.896Z,12.05
2017-10-10T06:42:30.760Z,11.98
2017-10-10T06:43:04.662Z,13.93
2017-10-10T06:43:38.542Z,14.23
2017-10-10T06:44:12.410Z,16.45
2017-10-10T06:44:46.281Z,14.77
2017-10-10T06:45:20.169Z,13.60
2017-10-10T06:45:54.059Z,12.93
2017-10-10T06:46:27.954Z,14.80
2017-10-10T06:47:01.814Z,15.00
2017-10-10T06:47:36.593Z,14.85
2017-10-10T06:48:10.514Z,17.15
2017-10-10T06:48:44.386Z,13.40
2017-10-10T06:49:18.275Z,12.10
2017-10-10T06:49:52.150Z,13.20
2017-10-10T06:50:26.031Z,11.73
2017-10-10T06:50:59.890Z,16.85
2017-10-10T06:51:34.323Z,14.50
2017-10-10T06:52:08.215Z,15.65
2017-10-10T06:52:42.084Z,15.23
2017-10-10T06:53:16.280Z,14.43
2017-10-10T06:53:50.241Z,19.40
2017-10-10T06:54:24.122Z,14.35
2017-10-10T06:54:58.025Z,21.30
2017-10-10T06:55:31.951Z,18.58
2017-10-10T06:56:05.861Z,14.48
2017-10-10T06:56:39.756Z,14.50
2017-10-10T06:57:13.659Z,14.90
2017-10-10T06:57:47.525Z,15.02
2017-10-10T06:58:21.391Z,17.00
2017-10-10T06:58:55.284Z,14.43
2017-10-10T06:59:29.196Z,14.73
2017-10-10T07:00:03.118Z,11.68
2017-10-10T07:10:19.521Z,13.20
2017-10-10T07:10:53.410Z,12.20
2017-10-10T07:11:33.220Z,13.18
2017-10-10T07:12:10.200Z,11.25
2017-10-10T07:12:45.783Z,14.45
2017-10-10T07:13:19.671Z,13.10
2017-10-10T07:13:53.545Z,14.48
2017-10-10T07:14:30.285Z,12.90
2017-10-10T07:15:04.674Z,11.85
2017-10-10T07:15:40.133Z,12.20
2017-10-10T07:16:14.008Z,11.60
2017-10-10T07:16:48.001Z,20.45
2017-10-10T07:17:22.780Z,12.27
2017-10-10T07:17:57.157Z,12.60
2017-10-10T07:18:31.038Z,14.10
2017-10-10T07:19:05.667Z,14.35
2017-10-10T07:19:39.531Z,10.18
2017-10-10T07:20:14.229Z,15.35
2017-10-10T07:20:48.122Z,11.00
2017-10-10T07:21:22.021Z,14.40
2017-10-10T07:21:55.966Z,14.70
2017-10-10T07:22:29.837Z,11.50
2017-10-10T07:23:03.913Z,14.45
2017-10-10T07:23:37.793Z,12.90
2017-10-10T07:24:11.652Z,14.13
2017-10-10T07:24:45.595Z,15.80
2017-10-10T07:25:19.488Z,10.60
2017-10-10T07:25:53.360Z,14.25
2017-10-10T07:26:27.284Z,11.90
2017-10-10T07:27:01.179Z,13.82